createdAt,value
2018-05-09T00:00:12.187Z,15.04
2018-05-09T00:01:12.126Z,15.01
2018-05-09T00:02:12.063Z,14.97
2018-05-09T00:03:12.003Z,15.05
2018-05-09T00:04:11.941Z,15.05
2018-05-09T00:05:11.878Z,15.03
2018-05-09T00:06:11.819Z,15.01
2018-05-09T00:07:11.757Z,15.12
2018-05-09T00:08:11.698Z,15.14
2018-05-09T00:09:11.632Z,15.20
2018-05-09T00:10:11.571Z,15.22
2018-05-09T00:11:11.511Z,15.32
2018-05-09T00:12:11.447Z,15.41
2018-05-09T00:13:11.387Z,15.41
2018-05-09T00:14:11.325Z,15.50
2018-05-09T00:15:11.261Z,15.50
2018-05-09T00:16:11.204Z,15.54
2018-05-09T00:17:11.144Z,15.38
2018-05-09T00:18:11.076Z,15.33
2018-05-09T00:19:11.016Z,15.22
2018-05-09T00:20:10.954Z,15.15
2018-05-09T00:21:10.893Z,15.05
2018-05-09T00:22:10.830Z,15.10
2018-05-09T00:23:10.767Z,15.05
2018-05-09T00:24:10.706Z,15.01
2018-05-09T00:25:10.645Z,15.10
2018-05-09T00:26:10.584Z,15.07
2018-05-09T00:27:10.526Z,15.01
2018-05-09T00:28:10.460Z,14.89
2018-05-09T00:29:10.397Z,14.83
2018-05-09T00:30:10.341Z,14.77
2018-05-09T00:31:10.274Z,14.67
2018-05-09T00:32:10.215Z,14.63
2018-05-09T00:33:10.150Z,14.59
2018-05-09T00:34:10.091Z,14.58
2018-05-09T00:35:10.028Z,14.52
2018-05-09T00:36:09.965Z,14.46
2018-05-09T00:37:09.904Z,14.44
2018-05-09T00:38:09.844Z,14.34
2018-05-09T00:39:09.780Z,14.27
2018-05-09T00:40:09.717Z,14.28
2018-05-09T00:41:09.660Z,14.27
2018-05-09T00:42:09.595Z,14.19
2018-05-09T00:43:09.533Z,14.22
2018-05-09T00:44:09.471Z,14.22
2018-05-09T00:45:09.409Z,14.21
2018-05-09T00:46:09.346Z,14.16
2018-05-09T00:47:09.286Z,14.15
2018-05-09T00:48:09.226Z,14.05
2018-05-09T00:49:09.159Z,14.08
2018-05-09T00:50:09.115Z,14.04
2018-05-09T00:51:09.037Z,13.98
2018-05-09T00:52:08.975Z,13.97
2018-05-09T00:53:08.914Z,13.85
2018-05-09T00:54:08.851Z,13.91
2018-05-09T00:55:08.791Z,13.93
2018-05-09T00:56:08.735Z,13.94
2018-05-09T00:57:08.669Z,13.86
2018-05-09T00:58:08.604Z,13.88
2018-05-09T00:59:08.541Z,13.93
2018-05-09T01:00:08.479Z,13.90
2018-05-09T01:01:08.418Z,13.88
2018-05-09T01:02:08.357Z,13.86
2018-05-09T01:03:08.296Z,13.86
2018-05-09T01:04:08.231Z,13.88
2018-05-09T01:05:08.171Z,13.85
2018-05-09T01:06:08.107Z,13.94
2018-05-09T01:07:08.045Z,13.94
2018-05-09T01:08:07.983Z,13.83
2018-05-09T01:09:07.924Z,13.94
2018-05-09T01:10:07.859Z,13.94
2018-05-09T01:11:07.796Z,13.83
2018-05-09T01:12:07.734Z,13.85
2018-05-09T01:13:07.672Z,13.79
2018-05-09T01:14:07.612Z,13.80
2018-05-09T01:15:07.554Z,13.76
2018-05-09T01:16:07.485Z,13.79
2018-05-09T01:17:07.423Z,13.78
2018-05-09T01:18:07.360Z,13.85
2018-05-09T01:19:07.301Z,13.85
2018-05-09T01:20:07.237Z,13.82
2018-05-09T01:21:07.173Z,13.82
2018-05-09T01:22:07.112Z,13.72
2018-05-09T01:23:07.051Z,13.72
2018-05-09T01:24:06.987Z,13.76
2018-05-09T01:25:06.926Z,13.71
2018-05-09T01:26:06.864Z,13.71
2018-05-09T01:27:06.801Z,13.80
2018-05-09T01:28:06.737Z,13.80
2018-05-09T01:29:06.675Z,13.80
2018-05-09T01:30:06.614Z,13.79
2018-05-09T01:31:06.552Z,13.78
2018-05-09T01:32:06.489Z,13.80
2018-05-09T01:33:06.426Z,13.82
2018-05-09T01:34:06.364Z,13.83
2018-05-09T01:35:06.301Z,13.79
2018-05-09T01:36:06.242Z,13.80
2018-05-09T01:37:06.175Z,13.76
2018-05-09T01:38:06.117Z,13.72
2018-05-09T01:39:06.054Z,13.76
2018-05-09T01:40:05.989Z,13.79
2018-05-09T01:41:05.927Z,13.71
2018-05-09T01:42:05.871Z,13.65
2018-05-09T01:43:05.805Z,13.60
2018-05-09T01:44:05.739Z,13.63
2018-05-09T01:45:05.677Z,13.58
2018-05-09T01:46:05.616Z,13.51
2018-05-09T01:47:05.552Z,13.60
2018-05-09T01:48:05.490Z,13.61
2018-05-09T01:49:05.429Z,13.58
2018-05-09T01:50:05.365Z,13.63
2018-05-09T01:51:05.305Z,13.64
2018-05-09T01:52:05.243Z,13.57
2018-05-09T01:53:05.182Z,13.58
2018-05-09T01:54:05.119Z,13.64
2018-05-09T01:55:05.055Z,13.58
2018-05-09T01:56:04.991Z,13.58
2018-05-09T01:57:04.934Z,13.54
2018-05-09T01:58:04.868Z,13.57
2018-05-09T01:59:04.804Z,13.46
2018-05-09T02:00:04.744Z,13.53
2018-05-09T02:01:04.678Z,13.43
2018-05-09T02:02:04.617Z,13.43
2018-05-09T02:03:04.555Z,13.38
2018-05-09T02:04:04.493Z,13.40
2018-05-09T02:05:04.430Z,13.42
2018-05-09T02:06:04.446Z,13.38
2018-05-09T02:07:04.304Z,13.46
2018-05-09T02:08:04.240Z,13.47
2018-05-09T02:09:04.180Z,13.40
2018-05-09T02:10:04.118Z,13.45
2018-05-09T02:11:04.054Z,13.39
2018-05-09T02:12:03.991Z,13.40
2018-05-09T02:13:03.931Z,13.36
2018-05-09T02:14:03.867Z,13.38
2018-05-09T02:15:03.806Z,13.43
2018-05-09T02:16:03.741Z,13.39
2018-05-09T02:17:03.679Z,13.30
2018-05-09T02:18:03.617Z,13.32
2018-05-09T02:19:03.554Z,13.39
2018-05-09T02:20:03.493Z,13.43
2018-05-09T02:21:03.430Z,13.24
2018-05-09T02:22:03.387Z,13.29
2018-05-09T02:23:03.305Z,13.23
2018-05-09T02:24:03.253Z,13.35
2018-05-09T02:25:03.180Z,13.21
2018-05-09T02:26:03.115Z,13.38
2018-05-09T02:27:03.054Z,13.29
2018-05-09T02:28:02.990Z,13.24
2018-05-09T02:29:02.929Z,13.24
2018-05-09T02:30:02.875Z,13.29
2018-05-09T02:31:02.857Z,13.13
2018-05-09T02:32:02.741Z,13.23
2018-05-09T02:33:02.679Z,13.11
2018-05-09T02:34:02.616Z,13.06
2018-05-09T02:35:02.554Z,13.06
2018-05-09T02:36:02.492Z,13.06
2018-05-09T02:37:02.429Z,13.04
2018-05-09T02:38:02.367Z,12.93
2018-05-09T02:39:02.304Z,12.90
2018-05-09T02:40:02.237Z,12.93
2018-05-09T02:41:02.180Z,12.96
2018-05-09T02:42:02.120Z,12.99
2018-05-09T02:43:02.054Z,12.99
2018-05-09T02:44:01.992Z,12.96
2018-05-09T02:45:01.937Z,12.98
2018-05-09T02:46:01.866Z,12.95
2018-05-09T02:47:01.802Z,12.91
2018-05-09T02:48:01.746Z,12.90
2018-05-09T02:49:01.683Z,12.93
2018-05-09T02:50:01.745Z,12.90
2018-05-09T02:51:01.555Z,12.88
2018-05-09T02:52:01.490Z,12.90
2018-05-09T02:53:01.429Z,12.91
2018-05-09T02:54:01.365Z,12.96
2018-05-09T02:55:01.302Z,12.88
2018-05-09T02:56:01.241Z,12.88
2018-05-09T02:57:01.177Z,12.80
2018-05-09T02:58:01.114Z,12.80
2018-05-09T02:59:01.054Z,12.83
2018-05-09T03:00:00.989Z,12.77
2018-05-09T03:01:00.929Z,12.90
2018-05-09T03:02:00.866Z,12.88
2018-05-09T03:03:00.804Z,12.91
2018-05-09T03:04:00.738Z,12.90
2018-05-09T03:05:00.676Z,12.84
2018-05-09T03:06:00.611Z,12.88
2018-05-09T03:07:00.550Z,12.93
2018-05-09T03:08:00.486Z,12.99
2018-05-09T03:09:00.423Z,12.99
2018-05-09T03:10:00.360Z,13.01
2018-05-09T03:11:00.297Z,13.06
2018-05-09T03:12:00.233Z,13.06
2018-05-09T03:13:00.174Z,13.01
2018-05-09T03:14:00.110Z,12.96
2018-05-09T03:15:00.046Z,12.98
2018-05-09T03:15:59.983Z,12.96
2018-05-09T03:16:59.925Z,12.91
2018-05-09T03:17:59.858Z,12.87
2018-05-09T03:18:59.798Z,12.90
2018-05-09T03:19:59.732Z,12.84
2018-05-09T03:20:59.670Z,12.88
2018-05-09T03:21:59.606Z,12.91
2018-05-09T03:22:59.544Z,12.95
2018-05-09T03:23:59.480Z,12.96
2018-05-09T03:24:59.418Z,12.91
2018-05-09T03:25:59.351Z,12.95
2018-05-09T03:26:59.292Z,12.98
2018-05-09T03:27:59.228Z,12.93
2018-05-09T03:28:59.164Z,12.91
2018-05-09T03:29:59.104Z,12.77
2018-05-09T03:30:59.044Z,12.76
2018-05-09T03:31:58.978Z,12.71
2018-05-09T03:32:58.915Z,12.81
2018-05-09T03:33:58.855Z,12.66
2018-05-09T03:34:58.791Z,12.72
2018-05-09T03:35:58.727Z,12.73
2018-05-09T03:36:58.664Z,12.81
2018-05-09T03:37:58.604Z,12.76
2018-05-09T03:38:58.538Z,12.86
2018-05-09T03:39:58.474Z,12.88
2018-05-09T03:40:58.412Z,12.95
2018-05-09T03:41:58.349Z,13.06
2018-05-09T03:42:58.287Z,13.01
2018-05-09T03:43:58.222Z,12.99
2018-05-09T03:44:58.161Z,13.01
2018-05-09T03:45:58.099Z,13.02
2018-05-09T03:46:58.036Z,13.04
2018-05-09T03:47:57.980Z,13.04
2018-05-09T03:48:57.911Z,13.06
2018-05-09T03:49:57.847Z,13.05
2018-05-09T03:50:57.784Z,13.06
2018-05-09T03:51:57.720Z,12.98
2018-05-09T03:52:57.658Z,13.09
2018-05-09T03:53:57.594Z,12.91
2018-05-09T03:54:57.533Z,13.08
2018-05-09T03:55:57.470Z,13.08
2018-05-09T03:56:57.404Z,13.14
2018-05-09T03:57:57.343Z,13.19
2018-05-09T03:58:57.282Z,13.14
2018-05-09T03:59:57.217Z,13.14
2018-05-09T04:00:57.165Z,13.08
2018-05-09T04:01:57.094Z,13.13
2018-05-09T04:02:57.029Z,13.16
2018-05-09T04:03:56.967Z,13.16
2018-05-09T04:04:56.904Z,13.06
2018-05-09T04:05:56.840Z,13.20
2018-05-09T04:06:56.777Z,13.11
2018-05-09T04:07:56.713Z,13.02
2018-05-09T04:08:56.651Z,12.90
2018-05-09T04:09:56.588Z,12.99
2018-05-09T04:10:56.525Z,13.02
2018-05-09T04:11:56.462Z,12.91
2018-05-09T04:12:56.401Z,12.90
2018-05-09T04:13:56.335Z,12.90
2018-05-09T04:14:56.310Z,12.91
2018-05-09T04:15:56.211Z,12.87
2018-05-09T04:16:56.148Z,12.88
2018-05-09T04:17:56.084Z,12.96
2018-05-09T04:18:56.024Z,12.95
2018-05-09T04:19:55.960Z,13.01
2018-05-09T04:20:55.983Z,13.04
2018-05-09T04:21:55.832Z,12.99
2018-05-09T04:22:55.769Z,13.04
2018-05-09T04:23:55.706Z,13.05
2018-05-09T04:24:55.644Z,12.93
2018-05-09T04:25:55.583Z,13.05
2018-05-09T04:26:55.519Z,13.02
2018-05-09T04:27:55.988Z,13.01
2018-05-09T04:28:55.392Z,12.99
2018-05-09T04:29:55.989Z,13.01
2018-05-09T04:30:55.267Z,12.91
2018-05-09T04:31:55.203Z,13.02
2018-05-09T04:32:55.988Z,13.04
2018-05-09T04:33:55.076Z,13.08
2018-05-09T04:34:55.016Z,12.95
2018-05-09T04:35:54.953Z,13.17
2018-05-09T04:36:54.890Z,13.14
2018-05-09T04:37:54.831Z,13.23
2018-05-09T04:38:55.492Z,13.26
2018-05-09T04:39:55.493Z,13.24
2018-05-09T04:40:54.637Z,13.29
2018-05-09T04:41:55.607Z,13.23
2018-05-09T04:42:54.513Z,13.26
2018-05-09T04:43:54.450Z,13.36
2018-05-09T04:44:54.385Z,13.43
2018-05-09T04:45:54.325Z,13.46
2018-05-09T04:46:54.260Z,13.49
2018-05-09T04:47:54.197Z,13.39
2018-05-09T04:48:54.998Z,13.53
2018-05-09T04:49:54.992Z,13.51
2018-05-09T04:50:54.993Z,13.58
2018-05-09T04:51:54.499Z,13.60
2018-05-09T04:52:53.885Z,13.60
2018-05-09T04:53:53.820Z,13.63
2018-05-09T04:54:53.757Z,13.75
2018-05-09T04:55:53.693Z,13.64
2018-05-09T04:56:53.634Z,13.63
2018-05-09T04:57:54.497Z,13.71
2018-05-09T04:58:53.505Z,13.72
2018-05-09T04:59:53.443Z,13.76
2018-05-09T05:00:53.994Z,13.79
2018-05-09T05:01:53.321Z,13.83
2018-05-09T05:02:53.254Z,13.73
2018-05-09T05:03:53.191Z,13.83
2018-05-09T05:04:53.127Z,13.80
2018-05-09T05:05:53.997Z,13.82
2018-05-09T05:06:53.995Z,13.80
2018-05-09T05:07:52.943Z,13.86
2018-05-09T05:08:52.877Z,13.93
2018-05-09T05:09:53.504Z,13.86
2018-05-09T05:10:52.755Z,13.97
2018-05-09T05:11:53.570Z,13.97
2018-05-09T05:12:53.503Z,13.98
2018-05-09T05:13:53.498Z,14.00
2018-05-09T05:14:53.010Z,14.00
2018-05-09T05:15:53.001Z,14.08
2018-05-09T05:16:52.377Z,14.01
2018-05-09T05:17:52.315Z,14.03
2018-05-09T05:18:52.252Z,14.05
2018-05-09T05:19:52.188Z,14.16
2018-05-09T05:20:52.127Z,14.18
2018-05-09T05:21:52.064Z,14.22
2018-05-09T05:22:52.499Z,14.26
2018-05-09T05:23:51.939Z,14.31
2018-05-09T05:24:51.876Z,14.33
2018-05-09T05:25:52.512Z,14.41
2018-05-09T05:26:51.756Z,14.41
2018-05-09T05:27:52.499Z,14.49
2018-05-09T05:28:51.628Z,14.44
2018-05-09T05:29:51.564Z,14.51
2018-05-09T05:30:51.501Z,14.55
2018-05-09T05:31:51.441Z,14.61
2018-05-09T05:32:51.404Z,14.56
2018-05-09T05:33:51.315Z,14.61
2018-05-09T05:34:51.257Z,14.59
2018-05-09T05:35:51.190Z,14.69
2018-05-09T05:36:51.128Z,14.73
2018-05-09T05:37:52.003Z,14.77
2018-05-09T05:38:51.073Z,14.85
2018-05-09T05:39:50.941Z,14.77
2018-05-09T05:40:51.504Z,14.90
2018-05-09T05:41:51.503Z,14.97
2018-05-09T05:42:51.579Z,14.96
2018-05-09T05:43:51.503Z,15.05
2018-05-09T05:44:50.640Z,15.04
2018-05-09T05:45:50.567Z,15.03
2018-05-09T05:46:50.511Z,15.12
2018-05-09T05:47:50.443Z,15.10
2018-05-09T05:48:50.380Z,15.14
2018-05-09T05:49:51.006Z,15.12
2018-05-09T05:50:51.009Z,15.14
2018-05-09T05:51:51.015Z,15.14
2018-05-09T05:52:51.007Z,15.23
2018-05-09T05:53:50.109Z,15.23
2018-05-09T05:54:50.038Z,15.26
2018-05-09T05:55:49.981Z,15.30
2018-05-09T05:56:49.956Z,15.29
2018-05-09T05:57:49.909Z,15.27
2018-05-09T05:58:49.762Z,15.40
2018-05-09T05:59:49.770Z,15.45
2018-05-09T06:00:49.638Z,15.45
2018-05-09T06:01:49.636Z,15.44
2018-05-09T06:02:49.515Z,15.41
2018-05-09T06:03:49.459Z,15.52
2018-05-09T06:04:50.012Z,15.54
2018-05-09T06:05:49.328Z,15.54
2018-05-09T06:06:49.340Z,15.62
2018-05-09T06:07:49.257Z,15.60
2018-05-09T06:08:49.143Z,15.68
2018-05-09T06:09:49.079Z,15.76
2018-05-09T06:10:49.018Z,15.77
2018-05-09T06:11:48.959Z,15.76
2018-05-09T06:12:48.895Z,15.78
2018-05-09T06:13:48.833Z,15.85
2018-05-09T06:14:48.771Z,15.85
2018-05-09T06:15:48.709Z,15.98
2018-05-09T06:16:48.649Z,15.98
2018-05-09T06:17:48.587Z,16.05
2018-05-09T06:18:48.525Z,16.05
2018-05-09T06:19:48.462Z,16.10
2018-05-09T06:20:48.401Z,16.22
2018-05-09T06:21:48.339Z,16.28
2018-05-09T06:22:48.276Z,16.34
2018-05-09T06:23:48.236Z,16.40
2018-05-09T06:24:48.153Z,16.42
2018-05-09T06:25:48.094Z,16.37
2018-05-09T06:26:48.031Z,16.37
2018-05-09T06:27:47.972Z,16.36
2018-05-09T06:28:47.909Z,16.39
2018-05-09T06:29:47.847Z,16.39
2018-05-09T06:30:47.786Z,16.44
2018-05-09T06:31:47.721Z,16.57
2018-05-09T06:32:47.662Z,16.54
2018-05-09T06:33:47.601Z,16.55
2018-05-09T06:34:47.541Z,16.62
2018-05-09T06:35:47.478Z,16.62
2018-05-09T06:36:47.416Z,16.73
2018-05-09T06:37:47.399Z,16.67
2018-05-09T06:38:47.301Z,16.67
2018-05-09T06:39:47.231Z,16.70
2018-05-09T06:40:47.195Z,16.65
2018-05-09T06:41:47.240Z,16.72
2018-05-09T06:42:47.047Z,16.76
2018-05-09T06:43:47.044Z,16.64
2018-05-09T06:44:46.924Z,16.67
2018-05-09T06:45:46.865Z,16.65
2018-05-09T06:46:46.805Z,16.67
2018-05-09T06:47:46.741Z,16.67
2018-05-09T06:48:46.681Z,16.73
2018-05-09T06:49:46.622Z,16.82
2018-05-09T06:50:46.561Z,16.87
2018-05-09T06:51:46.502Z,16.88
2018-05-09T06:52:46.435Z,16.87
2018-05-09T06:53:46.376Z,16.88
2018-05-09T06:54:46.317Z,16.91
2018-05-09T06:55:46.252Z,16.95
2018-05-09T06:56:46.191Z,17.01
2018-05-09T06:57:46.129Z,16.97
2018-05-09T06:58:46.068Z,16.88
2018-05-09T06:59:46.006Z,16.92
2018-05-09T07:00:45.948Z,16.87
2018-05-09T07:01:45.885Z,16.92
2018-05-09T07:02:45.824Z,16.94
2018-05-09T07:03:45.761Z,17.01
2018-05-09T07:04:45.702Z,17.01
2018-05-09T07:05:45.642Z,17.16
2018-05-09T07:06:45.789Z,17.13
2018-05-09T07:07:45.517Z,17.14
2018-05-09T07:08:45.462Z,17.12
2018-05-09T07:09:45.401Z,17.13
2018-05-09T07:10:45.334Z,17.27
2018-05-09T07:11:45.273Z,17.34
2018-05-09T07:12:45.214Z,17.41
2018-05-09T07:13:45.154Z,17.46
2018-05-09T07:14:45.092Z,17.41
2018-05-09T07:15:45.030Z,17.46
2018-05-09T07:16:44.972Z,17.43
2018-05-09T07:17:44.908Z,17.41
2018-05-09T07:18:44.847Z,17.37
2018-05-09T07:19:44.786Z,17.45
2018-05-09T07:20:44.727Z,17.46
2018-05-09T07:21:44.666Z,17.63
2018-05-09T07:22:44.603Z,17.75
2018-05-09T07:23:44.542Z,17.72
2018-05-09T07:24:44.482Z,17.75
2018-05-09T07:25:44.423Z,17.78
2018-05-09T07:26:44.363Z,17.73
2018-05-09T07:27:44.304Z,17.78
2018-05-09T07:28:44.238Z,17.68
2018-05-09T07:29:44.177Z,17.83
2018-05-09T07:30:44.122Z,17.99
2018-05-09T07:31:44.056Z,18.13
2018-05-09T07:32:44.001Z,18.23
2018-05-09T07:33:44.013Z,18.18
2018-05-09T07:34:43.897Z,18.26
2018-05-09T07:35:43.817Z,18.20
2018-05-09T07:36:43.754Z,18.27
2018-05-09T07:37:43.693Z,18.26
2018-05-09T07:38:43.635Z,18.26
2018-05-09T07:39:43.576Z,18.27
2018-05-09T07:40:43.512Z,18.34
2018-05-09T07:41:43.451Z,18.38
2018-05-09T07:42:43.397Z,18.28
2018-05-09T07:43:43.330Z,18.27
2018-05-09T07:44:43.270Z,18.21
2018-05-09T07:45:43.212Z,18.23
2018-05-09T07:46:43.148Z,18.21
2018-05-09T07:47:43.198Z,18.13
2018-05-09T07:48:43.029Z,18.05
2018-05-09T07:49:42.966Z,18.01
2018-05-09T07:50:42.911Z,17.96
2018-05-09T07:51:42.846Z,17.96
2018-05-09T07:52:42.789Z,18.01
2018-05-09T07:53:42.728Z,17.94
2018-05-09T07:54:42.668Z,18.06
2018-05-09T07:55:42.607Z,18.17
2018-05-09T07:56:42.551Z,18.15
2018-05-09T07:57:42.488Z,18.26
2018-05-09T07:58:42.426Z,18.30
2018-05-09T07:59:42.366Z,18.41
2018-05-09T08:00:42.308Z,18.45
2018-05-09T08:01:42.247Z,18.49
2018-05-09T08:02:42.190Z,18.52
2018-05-09T08:03:42.223Z,18.58
2018-05-09T08:04:42.067Z,18.64
2018-05-09T08:05:42.005Z,18.52
2018-05-09T08:06:41.941Z,18.51
2018-05-09T08:07:41.885Z,18.64
2018-05-09T08:08:41.825Z,18.68
2018-05-09T08:09:41.778Z,18.81
2018-05-09T08:10:41.706Z,18.89
2018-05-09T08:11:41.646Z,18.86
2018-05-09T08:12:41.586Z,18.85
2018-05-09T08:13:41.531Z,18.85
2018-05-09T08:14:41.469Z,18.94
2018-05-09T08:15:41.406Z,19.07
2018-05-09T08:16:41.347Z,19.07
2018-05-09T08:17:41.288Z,19.19
2018-05-09T08:18:41.228Z,19.17
2018-05-09T08:19:41.176Z,19.04
2018-05-09T08:20:41.111Z,18.97
2018-05-09T08:21:41.057Z,18.88
2018-05-09T08:22:40.993Z,18.91
2018-05-09T08:23:40.971Z,18.82
2018-05-09T08:24:40.871Z,18.85
2018-05-09T08:25:40.812Z,18.98
2018-05-09T08:26:40.752Z,19.01
2018-05-09T08:27:40.692Z,19.05
2018-05-09T08:28:40.632Z,19.04
2018-05-09T08:29:40.574Z,19.09
2018-05-09T08:30:40.514Z,19.20
2018-05-09T08:31:40.456Z,19.22
2018-05-09T08:32:40.395Z,19.23
2018-05-09T08:33:40.334Z,19.30
2018-05-09T08:34:40.277Z,19.32
2018-05-09T08:35:40.219Z,19.42
2018-05-09T08:36:40.226Z,19.42
2018-05-09T08:37:40.097Z,19.45
2018-05-09T08:38:40.041Z,19.41
2018-05-09T08:39:39.979Z,19.41
2018-05-09T08:40:39.921Z,19.44
2018-05-09T08:41:39.862Z,19.56
2018-05-09T08:42:39.802Z,19.56
2018-05-09T08:43:39.839Z,19.56
2018-05-09T08:44:39.684Z,19.67
2018-05-09T08:45:39.627Z,19.72
2018-05-09T08:46:39.566Z,19.84
2018-05-09T08:47:39.505Z,20.08
2018-05-09T08:48:39.448Z,20.17
2018-05-09T08:49:39.388Z,20.19
2018-05-09T08:50:39.330Z,20.15
2018-05-09T08:51:39.270Z,20.17
2018-05-09T08:52:39.211Z,20.07
2018-05-09T08:53:39.153Z,19.93
2018-05-09T08:54:39.097Z,20.05
2018-05-09T08:55:39.034Z,19.99
2018-05-09T08:56:38.976Z,20.00
2018-05-09T08:57:38.916Z,20.05
2018-05-09T08:58:38.857Z,20.08
2018-05-09T08:59:38.802Z,20.12
2018-05-09T09:00:38.741Z,20.09
2018-05-09T09:01:38.683Z,20.07
2018-05-09T09:02:38.623Z,20.11
2018-05-09T09:03:38.564Z,20.18
2018-05-09T09:04:38.505Z,20.23
2018-05-09T09:05:38.447Z,20.22
2018-05-09T09:06:38.389Z,20.27
2018-05-09T09:07:38.330Z,20.23
2018-05-09T09:08:38.272Z,20.33
2018-05-09T09:09:38.218Z,20.33
2018-05-09T09:10:38.155Z,20.33
2018-05-09T09:11:38.094Z,20.37
2018-05-09T09:12:38.040Z,20.42
2018-05-09T09:13:37.984Z,20.42
2018-05-09T09:14:37.923Z,20.60
2018-05-09T09:15:37.919Z,20.58
2018-05-09T09:16:37.803Z,20.63
2018-05-09T09:17:37.746Z,20.61
2018-05-09T09:18:37.778Z,20.56
2018-05-09T09:19:37.626Z,20.65
2018-05-09T09:20:37.608Z,20.56
2018-05-09T09:21:37.509Z,20.64
2018-05-09T09:22:37.451Z,20.60
2018-05-09T09:23:37.395Z,20.58
2018-05-09T09:24:37.334Z,20.79
2018-05-09T09:25:37.277Z,21.11
2018-05-09T09:26:37.219Z,21.14
2018-05-09T09:27:37.161Z,21.32
2018-05-09T09:28:37.107Z,21.53
2018-05-09T09:29:37.044Z,21.67
2018-05-09T09:30:36.986Z,21.90
2018-05-09T09:31:37.006Z,22.04
2018-05-09T09:32:36.935Z,22.33
2018-05-09T09:33:36.813Z,22.59
2018-05-09T09:34:36.754Z,22.46
2018-05-09T09:35:36.794Z,22.12
2018-05-09T09:36:36.640Z,22.31
2018-05-09T09:37:36.580Z,22.49
2018-05-09T09:38:36.523Z,22.53
2018-05-09T09:39:36.462Z,22.78
2018-05-09T09:40:36.408Z,23.18
2018-05-09T09:41:36.351Z,22.88
2018-05-09T09:42:36.290Z,22.46
2018-05-09T09:43:36.235Z,22.96
2018-05-09T09:44:36.177Z,23.03
2018-05-09T09:45:36.122Z,23.91
2018-05-09T09:46:36.064Z,24.19
2018-05-09T09:47:36.009Z,24.22
2018-05-09T09:48:35.952Z,24.74
2018-05-09T09:49:35.895Z,24.78
2018-05-09T09:50:35.900Z,23.98
2018-05-09T09:51:35.786Z,24.52
2018-05-09T09:52:35.729Z,25.12
2018-05-09T09:53:35.673Z,25.41
2018-05-09T09:54:35.618Z,25.66
2018-05-09T09:55:35.564Z,25.58
2018-05-09T09:56:35.531Z,25.19
2018-05-09T09:57:35.454Z,25.03
2018-05-09T09:58:35.400Z,24.51
2018-05-09T09:59:35.347Z,24.85
2018-05-09T10:00:35.291Z,25.11
2018-05-09T10:01:35.300Z,25.37
2018-05-09T10:02:35.184Z,24.75
2018-05-09T10:03:35.177Z,23.98
2018-05-09T10:04:35.109Z,23.81
2018-05-09T10:05:35.024Z,23.63
2018-05-09T10:06:34.970Z,23.23
2018-05-09T10:07:34.918Z,23.31
2018-05-09T10:08:34.862Z,23.78
2018-05-09T10:09:34.810Z,24.33
2018-05-09T10:10:34.756Z,24.82
2018-05-09T10:11:34.700Z,25.27
2018-05-09T10:12:34.649Z,25.51
2018-05-09T10:13:34.600Z,25.92
2018-05-09T10:14:34.541Z,26.21
2018-05-09T10:15:34.488Z,26.39
2018-05-09T10:16:34.435Z,26.56
2018-05-09T10:17:34.383Z,26.39
2018-05-09T10:18:34.327Z,26.48
2018-05-09T10:19:34.276Z,26.53
2018-05-09T10:20:34.224Z,26.53
2018-05-09T10:21:34.174Z,26.41
2018-05-09T10:22:34.120Z,26.65
2018-05-09T10:23:34.067Z,26.61
2018-05-09T10:24:34.016Z,26.52
2018-05-09T10:25:33.963Z,26.49
2018-05-09T10:26:33.911Z,26.41
2018-05-09T10:27:33.858Z,25.98
2018-05-09T10:28:33.812Z,26.05
2018-05-09T10:29:33.756Z,26.45
2018-05-09T10:30:33.705Z,26.60
2018-05-09T10:31:33.746Z,26.98
2018-05-09T10:32:33.600Z,27.41
2018-05-09T10:33:33.550Z,27.04
2018-05-09T10:34:33.498Z,27.41
2018-05-09T10:35:33.447Z,27.38
2018-05-09T10:36:33.395Z,27.34
2018-05-09T10:37:33.346Z,27.57
2018-05-09T10:38:33.293Z,27.75
2018-05-09T10:39:33.241Z,26.78
2018-05-09T10:40:33.190Z,26.53
2018-05-09T10:41:33.144Z,26.94
2018-05-09T10:42:33.087Z,27.08
2018-05-09T10:43:33.039Z,27.45
2018-05-09T10:44:32.985Z,27.22
2018-05-09T10:45:32.939Z,26.49
2018-05-09T10:46:32.884Z,26.31
2018-05-09T10:47:32.862Z,26.36
2018-05-09T10:48:32.781Z,26.57
2018-05-09T10:49:32.729Z,25.95
2018-05-09T10:50:32.681Z,25.16
2018-05-09T10:51:32.625Z,24.90
2018-05-09T10:52:32.576Z,24.94
2018-05-09T10:53:32.524Z,24.66
2018-05-09T10:54:32.471Z,24.60
2018-05-09T10:55:32.417Z,24.78
2018-05-09T10:56:32.367Z,24.96
2018-05-09T10:57:32.315Z,25.18
2018-05-09T10:58:32.262Z,24.62
2018-05-09T10:59:32.210Z,24.79
2018-05-09T11:00:32.160Z,25.00
2018-05-09T11:01:32.108Z,25.04
2018-05-09T11:02:32.053Z,25.03
2018-05-09T11:03:32.001Z,24.70
2018-05-09T11:04:31.949Z,24.16
2018-05-09T11:05:31.896Z,23.88
2018-05-09T11:06:31.843Z,23.88
2018-05-09T11:07:31.790Z,24.16
2018-05-09T11:08:31.735Z,24.23
2018-05-09T11:09:31.683Z,24.33
2018-05-09T11:10:31.653Z,23.73
2018-05-09T11:11:31.575Z,23.70
2018-05-09T11:12:31.523Z,23.59
2018-05-09T11:13:31.470Z,23.31
2018-05-09T11:14:31.622Z,23.10
2018-05-09T11:15:31.362Z,22.86
2018-05-09T11:16:31.305Z,22.73
2018-05-09T11:17:31.303Z,22.78
2018-05-09T11:18:31.202Z,22.76
2018-05-09T11:19:31.143Z,22.67
2018-05-09T11:20:31.091Z,22.83
2018-05-09T11:21:31.038Z,22.88
2018-05-09T11:22:30.982Z,22.98
2018-05-09T11:23:30.925Z,23.10
2018-05-09T11:24:30.887Z,23.03
2018-05-09T11:25:30.819Z,22.92
2018-05-09T11:26:30.763Z,22.85
2018-05-09T11:27:30.741Z,22.52
2018-05-09T11:28:30.651Z,22.49
2018-05-09T11:29:30.596Z,22.51
2018-05-09T11:30:30.542Z,22.43
2018-05-09T11:31:30.486Z,22.43
2018-05-09T11:32:30.432Z,22.40
2018-05-09T11:33:30.399Z,22.40
2018-05-09T11:34:30.321Z,22.31
2018-05-09T11:35:30.267Z,22.27
2018-05-09T11:36:30.210Z,22.25
2018-05-09T11:37:30.258Z,22.27
2018-05-09T11:38:30.100Z,22.44
2018-05-09T11:39:30.042Z,22.31
2018-05-09T11:40:29.987Z,22.37
2018-05-09T11:41:29.935Z,22.34
2018-05-09T11:42:29.877Z,22.27
2018-05-09T11:43:29.819Z,22.09
2018-05-09T11:44:29.762Z,22.06
2018-05-09T11:45:29.711Z,21.96
2018-05-09T11:46:29.651Z,21.93
2018-05-09T11:47:29.595Z,21.90
2018-05-09T11:48:29.538Z,22.12
2018-05-09T11:49:29.482Z,22.13
2018-05-09T11:50:29.426Z,22.27
2018-05-09T11:51:29.369Z,22.15
2018-05-09T11:52:29.316Z,22.12
2018-05-09T11:53:29.256Z,22.06
2018-05-09T11:54:29.200Z,22.04
2018-05-09T11:55:29.143Z,22.12
2018-05-09T11:56:29.085Z,22.12
2018-05-09T11:57:29.030Z,22.07
2018-05-09T11:58:28.976Z,21.98
2018-05-09T11:59:28.917Z,21.93
2018-05-09T12:00:28.861Z,21.88
2018-05-09T12:01:28.804Z,21.91
2018-05-09T12:02:28.803Z,21.93
2018-05-09T12:03:28.689Z,21.93
2018-05-09T12:04:28.634Z,22.04
2018-05-09T12:05:28.578Z,22.06
2018-05-09T12:06:28.529Z,22.12
2018-05-09T12:07:28.461Z,22.06
2018-05-09T12:08:28.407Z,22.06
2018-05-09T12:09:28.352Z,22.09
2018-05-09T12:10:28.466Z,22.18
2018-05-09T12:11:28.233Z,22.12
2018-05-09T12:12:28.177Z,22.21
2018-05-09T12:13:28.120Z,22.12
2018-05-09T12:14:28.065Z,22.15
2018-05-09T12:15:28.005Z,22.15
2018-05-09T12:16:27.950Z,22.16
2018-05-09T12:17:27.893Z,22.18
2018-05-09T12:18:27.836Z,22.06
2018-05-09T12:19:27.781Z,22.06
2018-05-09T12:20:27.721Z,22.13
2018-05-09T12:21:27.665Z,22.25
2018-05-09T12:22:27.608Z,22.55
2018-05-09T12:23:27.550Z,22.64
2018-05-09T12:24:27.551Z,22.76
2018-05-09T12:25:27.439Z,22.81
2018-05-09T12:26:27.380Z,23.01
2018-05-09T12:27:27.322Z,22.98
2018-05-09T12:28:27.266Z,23.10
2018-05-09T12:29:27.210Z,23.06
2018-05-09T12:30:27.152Z,23.07
2018-05-09T12:31:27.097Z,23.01
2018-05-09T12:32:27.040Z,22.98
2018-05-09T12:33:26.983Z,22.95
2018-05-09T12:34:26.929Z,22.98
2018-05-09T12:35:26.870Z,22.98
2018-05-09T12:36:26.858Z,23.06
2018-05-09T12:37:26.757Z,22.98
2018-05-09T12:38:26.700Z,22.96
2018-05-09T12:39:26.642Z,22.86
2018-05-09T12:40:26.584Z,22.68
2018-05-09T12:41:26.531Z,22.67
2018-05-09T12:42:26.476Z,22.67
2018-05-09T12:43:26.415Z,22.73
2018-05-09T12:44:26.358Z,22.64
2018-05-09T12:45:26.303Z,22.58
2018-05-09T12:46:26.245Z,22.62
2018-05-09T12:47:26.187Z,22.73
2018-05-09T12:48:26.160Z,22.70
2018-05-09T12:49:26.074Z,22.88
2018-05-09T12:50:26.017Z,22.95
2018-05-09T12:51:25.959Z,22.95